sensor_id;sensor_type;location;lat;lon;timestamp;P1;durP1;ratioP1;P2;durP2;ratioP2
10509;SDS011;5303;53.266;10.410;2022-10-30T00:00:26;16.70;;;11.20;;
10509;SDS011;5303;53.266;10.410;2022-10-30T00:02:52;21.20;;;12.33;;
10509;SDS011;5303;53.266;10.410;2022-10-30T00:05:18;17.80;;;11.60;;
10509;SDS011;5303;53.266;10.410;2022-10-30T00:07:47;20.97;;;11.60;;
10509;SDS011;5303;53.266;10.410;2022-10-30T00:10:12;21.60;;;11.47;;
10509;SDS011;5303;53.266;10.410;2022-10-30T00:12:38;20.97;;;11.80;;
10509;SDS011;5303;53.266;10.410;2022-10-30T00:15:04;14.70;;;10.77;;
10509;SDS011;5303;53.266;10.410;2022-10-30T00:17:29;20.87;;;11.53;;
10509;SDS011;5303;53.266;10.410;2022-10-30T00:19:55;20.43;;;11.87;;
10509;SDS011;5303;53.266;10.410;2022-10-30T00:22:21;20.73;;;11.50;;
10509;SDS011;5303;53.266;10.410;2022-10-30T00:24:46;15.60;;;10.20;;
10509;SDS011;5303;53.266;10.410;2022-10-30T00:27:12;18.23;;;10.80;;
10509;SDS011;5303;53.266;10.410;2022-10-30T00:29:37;17.67;;;10.47;;
10509;SDS011;5303;53.266;10.410;2022-10-30T00:32:02;19.33;;;11.70;;
10509;SDS011;5303;53.266;10.410;2022-10-30T00:34:28;16.97;;;11.50;;
10509;SDS011;5303;53.266;10.410;2022-10-30T00:36:53;16.60;;;12.07;;
10509;SDS011;5303;53.266;10.410;2022-10-30T00:39:18;17.90;;;11.87;;
10509;SDS011;5303;53.266;10.410;2022-10-30T00:41:44;19.10;;;12.40;;
10509;SDS011;5303;53.266;10.410;2022-10-30T00:47:03;22.67;;;12.47;;
10509;SDS011;5303;53.266;10.410;2022-10-30T00:49:36;18.30;;;11.67;;
10509;SDS011;5303;53.266;10.410;2022-10-30T00:52:08;19.03;;;11.80;;
10509;SDS011;5303;53.266;10.410;2022-10-30T00:54:34;20.17;;;11.93;;
10509;SDS011;5303;53.266;10.410;2022-10-30T00:57:01;19.47;;;11.50;;
10509;SDS011;5303;53.266;10.410;2022-10-30T00:59:31;18.47;;;11.30;;
10509;SDS011;5303;53.266;10.410;2022-10-30T01:01:58;21.23;;;11.83;;
10509;SDS011;5303;53.266;10.410;2022-10-30T01:04:25;20.33;;;11.40;;
10509;SDS011;5303;53.266;10.410;2022-10-30T01:06:51;21.43;;;12.27;;
10509;SDS011;5303;53.266;10.410;2022-10-30T01:09:20;14.53;;;11.53;;
10509;SDS011;5303;53.266;10.410;2022-10-30T01:11:46;18.33;;;11.53;;
10509;SDS011;5303;53.266;10.410;2022-10-30T01:14:12;22.13;;;12.17;;
10509;SDS011;5303;53.266;10.410;2022-10-30T01:19:41;18.67;;;11.70;;
10509;SDS011;5303;53.266;10.410;2022-10-30T01:25:08;24.10;;;12.70;;
10509;SDS011;5303;53.266;10.410;2022-10-30T01:33:57;21.60;;;11.70;;
10509;SDS011;5303;53.266;10.410;2022-10-30T01:36:37;20.93;;;11.57;;
10509;SDS011;5303;53.266;10.410;2022-10-30T01:39:17;19.60;;;12.07;;
10509;SDS011;5303;53.266;10.410;2022-10-30T01:41:47;19.83;;;11.87;;
10509;SDS011;5303;53.266;10.410;2022-10-30T01:44:13;21.70;;;11.93;;
10509;SDS011;5303;53.266;10.410;2022-10-30T01:46:50;19.50;;;12.37;;
10509;SDS011;5303;53.266;10.410;2022-10-30T01:57:39;16.10;;;11.57;;
10509;SDS011;5303;53.266;10.410;2022-10-30T02:00:14;17.90;;;11.17;;
10509;SDS011;5303;53.266;10.410;2022-10-30T02:02:41;20.00;;;11.33;;
10509;SDS011;5303;53.266;10.410;2022-10-30T02:05:07;17.97;;;11.30;;
10509;SDS011;5303;53.266;10.410;2022-10-30T02:07:35;16.73;;;10.90;;
10509;SDS011;5303;53.266;10.410;2022-10-30T02:10:01;17.30;;;11.40;;
10509;SDS011;5303;53.266;10.410;2022-10-30T02:12:28;23.00;;;11.90;;
10509;SDS011;5303;53.266;10.410;2022-10-30T02:14:54;22.53;;;11.50;;
10509;SDS011;5303;53.266;10.410;2022-10-30T02:17:22;19.13;;;11.73;;
10509;SDS011;5303;53.266;10.410;2022-10-30T02:19:48;19.97;;;10.33;;
10509;SDS011;5303;53.266;10.410;2022-10-30T02:22:13;18.63;;;10.57;;
10509;SDS011;5303;53.266;10.410;2022-10-30T02:24:40;16.73;;;10.27;;
10509;SDS011;5303;53.266;10.410;2022-10-30T02:27:06;12.90;;;9.13;;
10509;SDS011;5303;53.266;10.410;2022-10-30T02:29:31;15.93;;;9.57;;
10509;SDS011;5303;53.266;10.410;2022-10-30T02:31:56;16.80;;;10.30;;
10509;SDS011;5303;53.266;10.410;2022-10-30T02:34:21;17.53;;;10.03;;
10509;SDS011;5303;53.266;10.410;2022-10-30T02:36:47;18.67;;;10.17;;
10509;SDS011;5303;53.266;10.410;2022-10-30T02:39:12;13.13;;;9.50;;
10509;SDS011;5303;53.266;10.410;2022-10-30T02:41:37;14.00;;;9.37;;
10509;SDS011;5303;53.266;10.410;2022-10-30T02:44:03;13.17;;;9.10;;
10509;SDS011;5303;53.266;10.410;2022-10-30T02:46:30;15.03;;;9.73;;
10509;SDS011;5303;53.266;10.410;2022-10-30T02:48:56;13.50;;;9.07;;
10509;SDS011;5303;53.266;10.410;2022-10-30T02:51:21;12.83;;;9.03;;
10509;SDS011;5303;53.266;10.410;2022-10-30T02:53:46;15.77;;;9.40;;
10509;SDS011;5303;53.266;10.410;2022-10-30T02:56:12;13.50;;;9.00;;
10509;SDS011;5303;53.266;10.410;2022-10-30T02:58:38;13.17;;;9.33;;
10509;SDS011;5303;53.266;10.410;2022-10-30T03:01:05;11.30;;;8.57;;
10509;SDS011;5303;53.266;10.410;2022-10-30T03:03:32;13.73;;;9.30;;
10509;SDS011;5303;53.266;10.410;2022-10-30T03:06:00;11.50;;;8.77;;
10509;SDS011;5303;53.266;10.410;2022-10-30T03:08:28;17.03;;;9.20;;
10509;SDS011;5303;53.266;10.410;2022-10-30T03:11:00;21.07;;;9.57;;
10509;SDS011;5303;53.266;10.410;2022-10-30T03:13:28;17.57;;;9.83;;
10509;SDS011;5303;53.266;10.410;2022-10-30T03:16:04;15.53;;;8.73;;
10509;SDS011;5303;53.266;10.410;2022-10-30T03:18:32;16.17;;;9.73;;
10509;SDS011;5303;53.266;10.410;2022-10-30T03:20:58;12.93;;;8.87;;
10509;SDS011;5303;53.266;10.410;2022-10-30T03:23:26;9.97;;;8.30;;
10509;SDS011;5303;53.266;10.410;2022-10-30T03:25:52;13.80;;;8.67;;
10509;SDS011;5303;53.266;10.410;2022-10-30T03:28:19;15.60;;;9.77;;
10509;SDS011;5303;53.266;10.410;2022-10-30T03:30:45;15.33;;;9.33;;
10509;SDS011;5303;53.266;10.410;2022-10-30T03:33:10;13.73;;;9.40;;
10509;SDS011;5303;53.266;10.410;2022-10-30T03:35:36;15.30;;;9.60;;
10509;SDS011;5303;53.266;10.410;2022-10-30T03:38:01;12.87;;;9.50;;
10509;SDS011;5303;53.266;10.410;2022-10-30T03:40:26;11.80;;;8.63;;
10509;SDS011;5303;53.266;10.410;2022-10-30T03:42:52;13.33;;;8.80;;
10509;SDS011;5303;53.266;10.410;2022-10-30T03:45:17;13.43;;;9.30;;
10509;SDS011;5303;53.266;10.410;2022-10-30T03:47:42;15.93;;;8.63;;
10509;SDS011;5303;53.266;10.410;2022-10-30T03:53:29;14.60;;;9.00;;
10509;SDS011;5303;53.266;10.410;2022-10-30T03:56:03;13.53;;;8.60;;
10509;SDS011;5303;53.266;10.410;2022-10-30T03:58:29;12.87;;;8.13;;
10509;SDS011;5303;53.266;10.410;2022-10-30T04:01:04;9.87;;;7.77;;
10509;SDS011;5303;53.266;10.410;2022-10-30T04:03:31;12.57;;;8.50;;
10509;SDS011;5303;53.266;10.410;2022-10-30T04:05:56;11.53;;;8.73;;
10509;SDS011;5303;53.266;10.410;2022-10-30T04:08:22;14.57;;;8.93;;
10509;SDS011;5303;53.266;10.410;2022-10-30T04:10:48;12.30;;;8.47;;
10509;SDS011;5303;53.266;10.410;2022-10-30T04:13:14;13.93;;;8.03;;
10509;SDS011;5303;53.266;10.410;2022-10-30T04:15:41;12.93;;;8.60;;
10509;SDS011;5303;53.266;10.410;2022-10-30T04:18:07;14.70;;;9.30;;
10509;SDS011;5303;53.266;10.410;2022-10-30T04:20:35;17.13;;;9.23;;
10509;SDS011;5303;53.266;10.410;2022-10-30T04:23:02;14.80;;;9.30;;
10509;SDS011;5303;53.266;10.410;2022-10-30T04:25:28;13.17;;;9.17;;
10509;SDS011;5303;53.266;10.410;2022-10-30T04:27:54;18.23;;;9.87;;
10509;SDS011;5303;53.266;10.410;2022-10-30T04:30:20;14.37;;;8.57;;
10509;SDS011;5303;53.266;10.410;2022-10-30T04:32:49;11.47;;;8.47;;
10509;SDS011;5303;53.266;10.410;2022-10-30T04:35:16;12.43;;;8.27;;
10509;SDS011;5303;53.266;10.410;2022-10-30T04:37:43;12.30;;;8.23;;
10509;SDS011;5303;53.266;10.410;2022-10-30T04:40:23;13.40;;;8.50;;
10509;SDS011;5303;53.266;10.410;2022-10-30T04:42:49;11.57;;;8.13;;
10509;SDS011;5303;53.266;10.410;2022-10-30T04:45:15;14.43;;;8.53;;
10509;SDS011;5303;53.266;10.410;2022-10-30T04:47:41;15.07;;;8.50;;
10509;SDS011;5303;53.266;10.410;2022-10-30T04:50:06;13.60;;;8.43;;
10509;SDS011;5303;53.266;10.410;2022-10-30T04:52:32;12.53;;;8.57;;
10509;SDS011;5303;53.266;10.410;2022-10-30T04:54:58;10.93;;;8.10;;
10509;SDS011;5303;53.266;10.410;2022-10-30T04:57:23;11.97;;;8.10;;
10509;SDS011;5303;53.266;10.410;2022-10-30T04:59:48;15.00;;;9.10;;
10509;SDS011;5303;53.266;10.410;2022-10-30T05:02:14;12.20;;;8.23;;
10509;SDS011;5303;53.266;10.410;2022-10-30T05:04:40;11.47;;;8.07;;
10509;SDS011;5303;53.266;10.410;2022-10-30T05:07:05;14.80;;;9.17;;
10509;SDS011;5303;53.266;10.410;2022-10-30T05:09:31;16.77;;;8.73;;
10509;SDS011;5303;53.266;10.410;2022-10-30T05:11:56;16.63;;;8.73;;
10509;SDS011;5303;53.266;10.410;2022-10-30T05:14:22;13.37;;;8.70;;
10509;SDS011;5303;53.266;10.410;2022-10-30T05:16:47;15.77;;;9.17;;
10509;SDS011;5303;53.266;10.410;2022-10-30T05:19:12;14.70;;;8.63;;
10509;SDS011;5303;53.266;10.410;2022-10-30T05:24:59;14.27;;;9.50;;
10509;SDS011;5303;53.266;10.410;2022-10-30T05:27:24;13.70;;;8.37;;
10509;SDS011;5303;53.266;10.410;2022-10-30T05:29:50;15.40;;;9.90;;
10509;SDS011;5303;53.266;10.410;2022-10-30T05:32:15;16.20;;;9.23;;
10509;SDS011;5303;53.266;10.410;2022-10-30T05:34:40;14.57;;;8.53;;
10509;SDS011;5303;53.266;10.410;2022-10-30T05:37:05;13.40;;;9.27;;
10509;SDS011;5303;53.266;10.410;2022-10-30T05:39:31;16.00;;;9.47;;
10509;SDS011;5303;53.266;10.410;2022-10-30T05:41:56;11.90;;;8.23;;
10509;SDS011;5303;53.266;10.410;2022-10-30T05:44:21;17.43;;;9.57;;
10509;SDS011;5303;53.266;10.410;2022-10-30T05:46:46;14.23;;;8.80;;
10509;SDS011;5303;53.266;10.410;2022-10-30T05:49:12;14.23;;;8.80;;
10509;SDS011;5303;53.266;10.410;2022-10-30T05:51:37;13.47;;;8.57;;
10509;SDS011;5303;53.266;10.410;2022-10-30T05:54:02;15.53;;;8.67;;
10509;SDS011;5303;53.266;10.410;2022-10-30T05:56:28;16.03;;;8.73;;
10509;SDS011;5303;53.266;10.410;2022-10-30T05:58:53;13.13;;;8.90;;
10509;SDS011;5303;53.266;10.410;2022-10-30T06:01:18;13.40;;;8.83;;
10509;SDS011;5303;53.266;10.410;2022-10-30T06:03:44;14.63;;;9.37;;
10509;SDS011;5303;53.266;10.410;2022-10-30T06:06:09;12.50;;;8.00;;
10509;SDS011;5303;53.266;10.410;2022-10-30T06:08:34;12.83;;;8.10;;
10509;SDS011;5303;53.266;10.410;2022-10-30T06:11:00;13.63;;;8.50;;
10509;SDS011;5303;53.266;10.410;2022-10-30T06:13:25;11.50;;;8.20;;
10509;SDS011;5303;53.266;10.410;2022-10-30T06:15:53;13.00;;;8.03;;
10509;SDS011;5303;53.266;10.410;2022-10-30T06:18:20;13.47;;;9.47;;
10509;SDS011;5303;53.266;10.410;2022-10-30T06:20:45;11.37;;;8.60;;
10509;SDS011;5303;53.266;10.410;2022-10-30T06:23:10;13.03;;;8.43;;
10509;SDS011;5303;53.266;10.410;2022-10-30T06:25:36;12.97;;;7.90;;
10509;SDS011;5303;53.266;10.410;2022-10-30T06:28:01;12.97;;;9.00;;
10509;SDS011;5303;53.266;10.410;2022-10-30T06:30:27;13.63;;;8.73;;
10509;SDS011;5303;53.266;10.410;2022-10-30T06:32:59;17.17;;;9.00;;
10509;SDS011;5303;53.266;10.410;2022-10-30T06:35:25;18.53;;;8.33;;
10509;SDS011;5303;53.266;10.410;2022-10-30T06:37:51;15.03;;;7.90;;
10509;SDS011;5303;53.266;10.410;2022-10-30T06:40:17;14.20;;;8.03;;
10509;SDS011;5303;53.266;10.410;2022-10-30T06:42:43;16.27;;;8.67;;
10509;SDS011;5303;53.266;10.410;2022-10-30T06:45:10;12.10;;;8.03;;
10509;SDS011;5303;53.266;10.410;2022-10-30T06:47:36;12.77;;;8.17;;
10509;SDS011;5303;53.266;10.410;2022-10-30T06:50:03;12.60;;;8.20;;
10509;SDS011;5303;53.266;10.410;2022-10-30T06:52:29;13.67;;;7.87;;
10509;SDS011;5303;53.266;10.410;2022-10-30T06:54:54;12.73;;;7.90;;
10509;SDS011;5303;53.266;10.410;2022-10-30T06:57:20;11.20;;;7.60;;
10509;SDS011;5303;53.266;10.410;2022-10-30T06:59:45;11.53;;;7.40;;
10509;SDS011;5303;53.266;10.410;2022-10-30T07:02:10;11.47;;;8.30;;
10509;SDS011;5303;53.266;10.410;2022-10-30T07:04:36;13.57;;;8.60;;
10509;SDS011;5303;53.266;10.410;2022-10-30T07:07:01;12.20;;;7.90;;
10509;SDS011;5303;53.266;10.410;2022-10-30T07:09:28;14.23;;;8.43;;
10509;SDS011;5303;53.266;10.410;2022-10-30T07:11:53;11.33;;;8.40;;
10509;SDS011;5303;53.266;10.410;2022-10-30T07:14:18;12.07;;;8.23;;
10509;SDS011;5303;53.266;10.410;2022-10-30T07:16:43;11.67;;;8.63;;
10509;SDS011;5303;53.266;10.410;2022-10-30T07:19:09;11.70;;;8.27;;
10509;SDS011;5303;53.266;10.410;2022-10-30T07:21:34;10.23;;;7.50;;
10509;SDS011;5303;53.266;10.410;2022-10-30T07:23:59;10.17;;;7.40;;
10509;SDS011;5303;53.266;10.410;2022-10-30T07:26:24;11.33;;;7.63;;
10509;SDS011;5303;53.266;10.410;2022-10-30T07:28:50;11.53;;;8.10;;
10509;SDS011;5303;53.266;10.410;2022-10-30T07:31:15;10.57;;;7.50;;
10509;SDS011;5303;53.266;10.410;2022-10-30T07:33:40;12.20;;;8.30;;
10509;SDS011;5303;53.266;10.410;2022-10-30T07:36:06;11.37;;;7.93;;
10509;SDS011;5303;53.266;10.410;2022-10-30T07:38:31;11.33;;;8.30;;
10509;SDS011;5303;53.266;10.410;2022-10-30T07:40:57;14.13;;;8.80;;
10509;SDS011;5303;53.266;10.410;2022-10-30T07:43:22;12.67;;;7.83;;
10509;SDS011;5303;53.266;10.410;2022-10-30T07:45:47;11.50;;;8.23;;
10509;SDS011;5303;53.266;10.410;2022-10-30T07:48:13;12.17;;;7.87;;
10509;SDS011;5303;53.266;10.410;2022-10-30T07:50:38;12.23;;;7.63;;
10509;SDS011;5303;53.266;10.410;2022-10-30T07:53:03;13.93;;;8.63;;
10509;SDS011;5303;53.266;10.410;2022-10-30T07:55:28;12.00;;;7.80;;
10509;SDS011;5303;53.266;10.410;2022-10-30T07:57:54;11.07;;;7.20;;
10509;SDS011;5303;53.266;10.410;2022-10-30T08:00:19;11.50;;;7.63;;
10509;SDS011;5303;53.266;10.410;2022-10-30T08:02:47;10.33;;;7.40;;
10509;SDS011;5303;53.266;10.410;2022-10-30T08:05:19;12.13;;;7.67;;
10509;SDS011;5303;53.266;10.410;2022-10-30T08:07:45;12.30;;;8.40;;
10509;SDS011;5303;53.266;10.410;2022-10-30T08:10:12;12.80;;;8.20;;
10509;SDS011;5303;53.266;10.410;2022-10-30T08:12:37;11.40;;;7.77;;
10509;SDS011;5303;53.266;10.410;2022-10-30T08:15:04;11.60;;;7.57;;
10509;SDS011;5303;53.266;10.410;2022-10-30T08:17:30;14.43;;;7.80;;
10509;SDS011;5303;53.266;10.410;2022-10-30T08:19:55;12.90;;;8.60;;
10509;SDS011;5303;53.266;10.410;2022-10-30T08:22:21;13.97;;;7.90;;
10509;SDS011;5303;53.266;10.410;2022-10-30T08:24:46;17.47;;;9.17;;
10509;SDS011;5303;53.266;10.410;2022-10-30T08:27:11;11.67;;;8.23;;
10509;SDS011;5303;53.266;10.410;2022-10-30T08:29:37;12.73;;;7.87;;
10509;SDS011;5303;53.266;10.410;2022-10-30T08:32:02;11.53;;;8.03;;
10509;SDS011;5303;53.266;10.410;2022-10-30T08:34:27;12.93;;;8.07;;
10509;SDS011;5303;53.266;10.410;2022-10-30T08:36:55;15.33;;;8.77;;
10509;SDS011;5303;53.266;10.410;2022-10-30T08:39:21;13.20;;;8.17;;
10509;SDS011;5303;53.266;10.410;2022-10-30T08:41:46;14.40;;;8.07;;
10509;SDS011;5303;53.266;10.410;2022-10-30T08:44:12;16.33;;;8.50;;
10509;SDS011;5303;53.266;10.410;2022-10-30T08:46:37;13.30;;;7.13;;
10509;SDS011;5303;53.266;10.410;2022-10-30T08:49:02;16.00;;;8.03;;
10509;SDS011;5303;53.266;10.410;2022-10-30T08:51:30;16.17;;;8.00;;
10509;SDS011;5303;53.266;10.410;2022-10-30T08:53:57;14.63;;;7.77;;
10509;SDS011;5303;53.266;10.410;2022-10-30T08:56:22;12.30;;;7.93;;
10509;SDS011;5303;53.266;10.410;2022-10-30T08:58:49;16.20;;;7.60;;
10509;SDS011;5303;53.266;10.410;2022-10-30T09:01:14;10.43;;;7.40;;
10509;SDS011;5303;53.266;10.410;2022-10-30T09:03:39;18.83;;;8.17;;
10509;SDS011;5303;53.266;10.410;2022-10-30T09:06:06;13.43;;;7.40;;
10509;SDS011;5303;53.266;10.410;2022-10-30T09:08:32;18.07;;;8.23;;
10509;SDS011;5303;53.266;10.410;2022-10-30T09:10:57;13.40;;;7.87;;
10509;SDS011;5303;53.266;10.410;2022-10-30T09:13:23;14.47;;;7.83;;
10509;SDS011;5303;53.266;10.410;2022-10-30T09:15:49;15.33;;;8.10;;
10509;SDS011;5303;53.266;10.410;2022-10-30T09:18:14;14.47;;;8.40;;
10509;SDS011;5303;53.266;10.410;2022-10-30T09:20:40;17.70;;;8.17;;
10509;SDS011;5303;53.266;10.410;2022-10-30T09:23:05;16.43;;;7.90;;
10509;SDS011;5303;53.266;10.410;2022-10-30T09:25:30;11.40;;;7.47;;
10509;SDS011;5303;53.266;10.410;2022-10-30T09:27:56;14.97;;;7.60;;
10509;SDS011;5303;53.266;10.410;2022-10-30T09:30:21;16.47;;;7.93;;
10509;SDS011;5303;53.266;10.410;2022-10-30T09:33:20;11.40;;;6.87;;
10509;SDS011;5303;53.266;10.410;2022-10-30T09:35:38;15.40;;;7.70;;
10509;SDS011;5303;53.266;10.410;2022-10-30T09:38:03;13.60;;;6.80;;
10509;SDS011;5303;53.266;10.410;2022-10-30T09:43:42;13.53;;;7.60;;
10509;SDS011;5303;53.266;10.410;2022-10-30T09:46:17;11.60;;;7.87;;
10509;SDS011;5303;53.266;10.410;2022-10-30T09:49:01;11.17;;;6.67;;
10509;SDS011;5303;53.266;10.410;2022-10-30T09:54:45;15.10;;;7.63;;
10509;SDS011;5303;53.266;10.410;2022-10-30T09:57:24;10.90;;;7.00;;
10509;SDS011;5303;53.266;10.410;2022-10-30T10:00:04;11.80;;;7.13;;
10509;SDS011;5303;53.266;10.410;2022-10-30T10:02:45;13.27;;;7.53;;
10509;SDS011;5303;53.266;10.410;2022-10-30T10:05:14;16.57;;;8.00;;
10509;SDS011;5303;53.266;10.410;2022-10-30T10:08:06;11.97;;;7.50;;
10509;SDS011;5303;53.266;10.410;2022-10-30T10:10:38;15.47;;;7.47;;
10509;SDS011;5303;53.266;10.410;2022-10-30T10:13:09;14.00;;;7.57;;
10509;SDS011;5303;53.266;10.410;2022-10-30T10:15:48;12.97;;;7.83;;
10509;SDS011;5303;53.266;10.410;2022-10-30T10:18:22;13.93;;;7.90;;
10509;SDS011;5303;53.266;10.410;2022-10-30T10:20:51;12.43;;;7.57;;
10509;SDS011;5303;53.266;10.410;2022-10-30T10:23:28;14.87;;;7.50;;
10509;SDS011;5303;53.266;10.410;2022-10-30T10:26:00;14.63;;;7.73;;
10509;SDS011;5303;53.266;10.410;2022-10-30T10:28:46;12.53;;;7.27;;
10509;SDS011;5303;53.266;10.410;2022-10-30T10:31:24;13.63;;;7.43;;
10509;SDS011;5303;53.266;10.410;2022-10-30T10:34:23;14.73;;;7.30;;
10509;SDS011;5303;53.266;10.410;2022-10-30T10:39:45;14.43;;;8.17;;
10509;SDS011;5303;53.266;10.410;2022-10-30T10:42:37;16.50;;;7.60;;
10509;SDS011;5303;53.266;10.410;2022-10-30T10:45:20;14.07;;;7.60;;
10509;SDS011;5303;53.266;10.410;2022-10-30T10:50:21;13.13;;;6.90;;
10509;SDS011;5303;53.266;10.410;2022-10-30T10:55:37;11.50;;;6.43;;
10509;SDS011;5303;53.266;10.410;2022-10-30T10:58:05;13.03;;;7.60;;
10509;SDS011;5303;53.266;10.410;2022-10-30T11:00:38;10.90;;;7.30;;
10509;SDS011;5303;53.266;10.410;2022-10-30T11:03:14;14.83;;;7.83;;
10509;SDS011;5303;53.266;10.410;2022-10-30T11:05:46;12.77;;;7.33;;
10509;SDS011;5303;53.266;10.410;2022-10-30T11:08:19;9.57;;;6.43;;
10509;SDS011;5303;53.266;10.410;2022-10-30T11:10:51;12.23;;;7.03;;
10509;SDS011;5303;53.266;10.410;2022-10-30T11:13:24;13.00;;;6.70;;
10509;SDS011;5303;53.266;10.410;2022-10-30T11:18:33;12.63;;;6.43;;
10509;SDS011;5303;53.266;10.410;2022-10-30T11:21:03;11.67;;;6.73;;
10509;SDS011;5303;53.266;10.410;2022-10-30T11:23:35;14.37;;;6.90;;
10509;SDS011;5303;53.266;10.410;2022-10-30T11:26:27;13.00;;;6.97;;
10509;SDS011;5303;53.266;10.410;2022-10-30T11:28:56;13.87;;;6.40;;
10509;SDS011;5303;53.266;10.410;2022-10-30T11:31:35;12.47;;;6.97;;
10509;SDS011;5303;53.266;10.410;2022-10-30T11:36:41;11.67;;;6.50;;
10509;SDS011;5303;53.266;10.410;2022-10-30T11:39:18;12.23;;;6.47;;
10509;SDS011;5303;53.266;10.410;2022-10-30T11:41:47;15.37;;;6.93;;
10509;SDS011;5303;53.266;10.410;2022-10-30T11:44:19;12.43;;;6.33;;
10509;SDS011;5303;53.266;10.410;2022-10-30T11:46:45;16.20;;;7.00;;
10509;SDS011;5303;53.266;10.410;2022-10-30T11:49:28;11.37;;;6.77;;
10509;SDS011;5303;53.266;10.410;2022-10-30T11:52:00;15.90;;;6.70;;
10509;SDS011;5303;53.266;10.410;2022-10-30T11:54:26;14.43;;;7.00;;
10509;SDS011;5303;53.266;10.410;2022-10-30T11:56:52;15.90;;;6.60;;
10509;SDS011;5303;53.266;10.410;2022-10-30T11:59:19;14.33;;;6.47;;
10509;SDS011;5303;53.266;10.410;2022-10-30T12:01:56;12.87;;;6.60;;
10509;SDS011;5303;53.266;10.410;2022-10-30T12:04:23;12.10;;;6.83;;
10509;SDS011;5303;53.266;10.410;2022-10-30T12:07:05;12.73;;;6.47;;
10509;SDS011;5303;53.266;10.410;2022-10-30T12:09:46;14.90;;;6.63;;
10509;SDS011;5303;53.266;10.410;2022-10-30T12:12:21;9.87;;;6.53;;
10509;SDS011;5303;53.266;10.410;2022-10-30T12:14:49;10.37;;;6.03;;
10509;SDS011;5303;53.266;10.410;2022-10-30T12:17:16;16.73;;;6.80;;
10509;SDS011;5303;53.266;10.410;2022-10-30T12:19:46;12.90;;;6.27;;
10509;SDS011;5303;53.266;10.410;2022-10-30T12:22:34;14.13;;;6.50;;
10509;SDS011;5303;53.266;10.410;2022-10-30T12:25:02;13.70;;;6.40;;
10509;SDS011;5303;53.266;10.410;2022-10-30T12:27:33;16.97;;;6.87;;
10509;SDS011;5303;53.266;10.410;2022-10-30T12:30:05;11.27;;;6.23;;
10509;SDS011;5303;53.266;10.410;2022-10-30T12:32:51;10.90;;;6.37;;
10509;SDS011;5303;53.266;10.410;2022-10-30T12:35:39;10.87;;;6.93;;
10509;SDS011;5303;53.266;10.410;2022-10-30T12:38:08;11.93;;;6.27;;
10509;SDS011;5303;53.266;10.410;2022-10-30T12:41:07;12.80;;;6.43;;
10509;SDS011;5303;53.266;10.410;2022-10-30T12:43:36;12.10;;;5.77;;
10509;SDS011;5303;53.266;10.410;2022-10-30T12:46:16;14.03;;;6.37;;
10509;SDS011;5303;53.266;10.410;2022-10-30T12:48:52;19.37;;;5.93;;
10509;SDS011;5303;53.266;10.410;2022-10-30T12:51:30;10.27;;;5.87;;
10509;SDS011;5303;53.266;10.410;2022-10-30T12:54:24;12.63;;;6.00;;
10509;SDS011;5303;53.266;10.410;2022-10-30T12:57:16;13.97;;;6.17;;
10509;SDS011;5303;53.266;10.410;2022-10-30T13:05:12;13.13;;;6.00;;
10509;SDS011;5303;53.266;10.410;2022-10-30T13:07:44;15.23;;;6.53;;
10509;SDS011;5303;53.266;10.410;2022-10-30T13:10:26;16.30;;;6.23;;
10509;SDS011;5303;53.266;10.410;2022-10-30T13:12:57;14.10;;;6.67;;
10509;SDS011;5303;53.266;10.410;2022-10-30T13:15:37;9.77;;;5.67;;
10509;SDS011;5303;53.266;10.410;2022-10-30T13:18:13;15.23;;;6.43;;
10509;SDS011;5303;53.266;10.410;2022-10-30T13:20:41;12.50;;;6.87;;
10509;SDS011;5303;53.266;10.410;2022-10-30T13:23:14;12.83;;;8.17;;
10509;SDS011;5303;53.266;10.410;2022-10-30T13:25:57;17.73;;;6.23;;
10509;SDS011;5303;53.266;10.410;2022-10-30T13:34:39;11.70;;;6.20;;
10509;SDS011;5303;53.266;10.410;2022-10-30T13:37:07;10.60;;;6.40;;
10509;SDS011;5303;53.266;10.410;2022-10-30T13:39:37;10.97;;;6.30;;
10509;SDS011;5303;53.266;10.410;2022-10-30T13:42:16;10.57;;;6.23;;
10509;SDS011;5303;53.266;10.410;2022-10-30T13:47:58;15.03;;;6.87;;
10509;SDS011;5303;53.266;10.410;2022-10-30T13:50:45;10.83;;;6.37;;
10509;SDS011;5303;53.266;10.410;2022-10-30T13:53:25;12.23;;;6.53;;
10509;SDS011;5303;53.266;10.410;2022-10-30T13:55:54;14.00;;;6.60;;
10509;SDS011;5303;53.266;10.410;2022-10-30T14:03:51;11.67;;;6.40;;
10509;SDS011;5303;53.266;10.410;2022-10-30T14:15:13;12.90;;;7.00;;
10509;SDS011;5303;53.266;10.410;2022-10-30T14:20:43;13.80;;;7.40;;
10509;SDS011;5303;53.266;10.410;2022-10-30T14:25:44;10.73;;;6.00;;
10509;SDS011;5303;53.266;10.410;2022-10-30T14:28:36;9.60;;;6.43;;
10509;SDS011;5303;53.266;10.410;2022-10-30T14:31:04;10.47;;;6.30;;
10509;SDS011;5303;53.266;10.410;2022-10-30T14:33:41;11.57;;;5.93;;
10509;SDS011;5303;53.266;10.410;2022-10-30T14:55:34;10.57;;;6.37;;
10509;SDS011;5303;53.266;10.410;2022-10-30T14:58:15;10.70;;;6.00;;
10509;SDS011;5303;53.266;10.410;2022-10-30T15:00:44;9.50;;;6.03;;
10509;SDS011;5303;53.266;10.410;2022-10-30T15:06:15;9.37;;;6.77;;
10509;SDS011;5303;53.266;10.410;2022-10-30T15:11:36;8.90;;;5.80;;
10509;SDS011;5303;53.266;10.410;2022-10-30T15:14:31;8.57;;;5.83;;
10509;SDS011;5303;53.266;10.410;2022-10-30T15:16:59;8.30;;;6.07;;
10509;SDS011;5303;53.266;10.410;2022-10-30T15:19:25;7.00;;;6.30;;
10509;SDS011;5303;53.266;10.410;2022-10-30T15:21:52;8.27;;;6.07;;
10509;SDS011;5303;53.266;10.410;2022-10-30T15:24:23;8.80;;;7.00;;
10509;SDS011;5303;53.266;10.410;2022-10-30T15:26:52;10.53;;;7.07;;
10509;SDS011;5303;53.266;10.410;2022-10-30T15:29:26;8.27;;;7.17;;
10509;SDS011;5303;53.266;10.410;2022-10-30T15:31:58;10.17;;;7.27;;
10509;SDS011;5303;53.266;10.410;2022-10-30T15:34:25;8.03;;;6.77;;
10509;SDS011;5303;53.266;10.410;2022-10-30T15:36:55;10.43;;;6.90;;
10509;SDS011;5303;53.266;10.410;2022-10-30T15:39:20;9.77;;;7.20;;
10509;SDS011;5303;53.266;10.410;2022-10-30T15:41:51;10.43;;;7.10;;
10509;SDS011;5303;53.266;10.410;2022-10-30T15:44:23;12.70;;;7.50;;
10509;SDS011;5303;53.266;10.410;2022-10-30T15:46:51;10.17;;;7.80;;
10509;SDS011;5303;53.266;10.410;2022-10-30T15:49:40;10.60;;;7.60;;
10509;SDS011;5303;53.266;10.410;2022-10-30T15:52:21;10.23;;;6.73;;
10509;SDS011;5303;53.266;10.410;2022-10-30T15:54:58;10.93;;;7.07;;
10509;SDS011;5303;53.266;10.410;2022-10-30T15:57:28;11.87;;;7.00;;
10509;SDS011;5303;53.266;10.410;2022-10-30T15:59:58;9.23;;;6.93;;
10509;SDS011;5303;53.266;10.410;2022-10-30T16:02:28;9.90;;;7.27;;
10509;SDS011;5303;53.266;10.410;2022-10-30T16:04:54;12.33;;;7.53;;
10509;SDS011;5303;53.266;10.410;2022-10-30T16:07:23;10.07;;;7.40;;
10509;SDS011;5303;53.266;10.410;2022-10-30T16:10:08;12.53;;;8.73;;
10509;SDS011;5303;53.266;10.410;2022-10-30T16:12:34;12.40;;;8.70;;
10509;SDS011;5303;53.266;10.410;2022-10-30T16:15:01;11.70;;;8.17;;
10509;SDS011;5303;53.266;10.410;2022-10-30T16:17:31;11.57;;;8.60;;
10509;SDS011;5303;53.266;10.410;2022-10-30T16:19:58;10.60;;;8.17;;
10509;SDS011;5303;53.266;10.410;2022-10-30T16:22:27;10.97;;;8.00;;
10509;SDS011;5303;53.266;10.410;2022-10-30T16:24:55;11.17;;;9.23;;
10509;SDS011;5303;53.266;10.410;2022-10-30T16:27:22;14.10;;;9.93;;
10509;SDS011;5303;53.266;10.410;2022-10-30T16:29:49;15.83;;;12.20;;
10509;SDS011;5303;53.266;10.410;2022-10-30T16:32:19;14.43;;;11.67;;
10509;SDS011;5303;53.266;10.410;2022-10-30T16:34:46;15.00;;;12.00;;